createdAt,value
2023-04-16T00:01:55.921Z,97191.28
2023-04-16T00:04:44.245Z,97722.75
2023-04-16T00:07:33.221Z,97558.41
2023-04-16T00:10:18.800Z,97508.47
2023-04-16T00:13:07.380Z,97239.28
2023-04-16T00:15:53.052Z,97741.69
2023-04-16T00:18:41.579Z,97101.97
2023-04-16T00:21:27.452Z,97745.19
2023-04-16T00:24:15.956Z,96978.88
2023-04-16T00:27:01.656Z,97437.53
2023-04-16T00:29:48.042Z,98053.63
2023-04-16T00:32:36.091Z,97721.19
2023-04-16T00:35:24.816Z,97105.75
2023-04-16T00:38:12.026Z,97678.84
2023-04-16T00:41:03.183Z,97159.03
2023-04-16T00:43:51.876Z,97530.28
2023-04-16T00:46:38.297Z,97675.44
2023-04-16T00:49:24.904Z,97108.56
2023-04-16T00:52:15.666Z,97309.41
2023-04-16T00:55:01.309Z,97443.16
2023-04-16T00:57:46.962Z,97749.56
2023-04-16T01:00:35.741Z,97671.56
2023-04-16T01:03:21.233Z,97340.44
2023-04-16T01:06:12.167Z,97821.63
2023-04-16T01:09:03.076Z,97171.56
2023-04-16T01:11:48.724Z,97191.47
2023-04-16T01:14:34.568Z,97206.22
2023-04-16T01:17:23.014Z,97720.09
2023-04-16T01:20:08.692Z,97869.19
2023-04-16T01:22:54.225Z,97463.88
2023-04-16T01:25:39.778Z,98035.81
2023-04-16T01:28:26.041Z,97190.63
2023-04-16T01:31:11.625Z,97169.06
2023-04-16T01:34:23.162Z,97206.97
2023-04-16T01:37:08.737Z,97304.44
2023-04-16T01:39:56.228Z,97682.47
2023-04-16T01:42:42.033Z,97116.34
2023-04-16T01:45:27.881Z,97687.84
2023-04-16T01:48:13.231Z,97973.88
2023-04-16T01:50:58.745Z,98087.75
2023-04-16T01:53:47.322Z,98050.03
2023-04-16T01:56:32.862Z,97995.38
2023-04-16T01:59:17.959Z,98108.78
2023-04-16T02:02:11.271Z,98008.13
2023-04-16T02:04:57.877Z,98018.63
2023-04-16T02:07:43.428Z,97896.38
2023-04-16T02:10:29.035Z,98059.34
2023-04-16T02:13:17.501Z,98007.13
2023-04-16T02:16:05.632Z,98194.91
2023-04-16T02:19:22.877Z,98103.84
2023-04-16T02:22:08.602Z,96987.91
2023-04-16T02:24:54.108Z,97867.63
2023-04-16T02:27:43.007Z,97216.41
2023-04-16T02:30:42.412Z,97669.00
2023-04-16T02:33:28.256Z,98174.66
2023-04-16T02:36:20.309Z,98110.63
2023-04-16T02:39:05.773Z,97926.84
2023-04-16T02:41:51.466Z,97878.59
2023-04-16T02:44:37.620Z,97537.50
2023-04-16T02:47:23.388Z,97161.75
2023-04-16T02:50:10.135Z,98194.19
2023-04-16T02:52:55.665Z,97977.41
2023-04-16T02:55:41.834Z,97254.66
2023-04-16T02:58:27.356Z,97137.66
2023-04-16T03:01:17.396Z,97769.69
2023-04-16T03:04:05.467Z,97235.41
2023-04-16T03:06:51.522Z,98184.34
2023-04-16T03:09:40.050Z,97342.38
2023-04-16T03:12:25.581Z,97562.22
2023-04-16T03:15:11.262Z,97197.84
2023-04-16T03:18:02.131Z,98297.56
2023-04-16T03:21:00.043Z,97207.63
2023-04-16T03:23:47.175Z,97334.84
2023-04-16T03:26:32.971Z,97193.13
2023-04-16T03:29:18.582Z,97734.69
2023-04-16T03:32:04.012Z,97921.47
2023-04-16T03:34:49.814Z,98124.41
2023-04-16T03:37:35.563Z,97912.09
2023-04-16T03:40:20.953Z,98025.34
2023-04-16T03:43:06.312Z,98046.31
2023-04-16T03:45:51.768Z,98140.78
2023-04-16T03:48:39.944Z,98083.31
2023-04-16T03:51:26.097Z,98038.19
2023-04-16T03:54:11.621Z,98252.69
2023-04-16T03:56:57.639Z,98262.94
2023-04-16T03:59:43.182Z,98051.50
2023-04-16T04:02:28.801Z,98079.06
2023-04-16T04:05:14.818Z,98083.31
2023-04-16T04:08:03.510Z,98046.03
2023-04-16T04:10:56.279Z,97215.03
2023-04-16T04:13:45.943Z,97123.22
2023-04-16T04:16:32.844Z,97730.47
2023-04-16T04:19:18.325Z,97427.66
2023-04-16T04:22:04.184Z,98010.50
2023-04-16T04:24:49.867Z,98070.53
2023-04-16T04:27:35.728Z,98112.56
2023-04-16T04:30:21.450Z,98266.88
2023-04-16T04:33:07.220Z,98271.38
2023-04-16T04:35:54.821Z,98093.59
2023-04-16T04:38:41.224Z,98124.88
2023-04-16T04:41:26.757Z,98128.78
2023-04-16T04:44:11.811Z,98280.81
2023-04-16T04:46:57.649Z,98143.19
2023-04-16T04:49:45.706Z,98134.34
2023-04-16T04:52:31.011Z,98156.50
2023-04-16T04:55:16.439Z,98172.69
2023-04-16T04:58:03.510Z,98174.84
2023-04-16T05:00:50.042Z,98112.00
2023-04-16T05:03:35.558Z,98222.94
2023-04-16T05:06:21.270Z,98149.78
2023-04-16T05:09:06.890Z,98155.66
2023-04-16T05:11:52.658Z,98114.56
2023-04-16T05:14:38.028Z,98119.69
2023-04-16T05:17:23.492Z,98080.59
2023-04-16T05:20:11.977Z,98192.50
2023-04-16T05:22:57.184Z,98167.19
2023-04-16T05:25:43.074Z,98219.41
2023-04-16T05:28:28.887Z,98231.50
2023-04-16T05:31:14.777Z,98080.38
2023-04-16T05:34:00.182Z,98064.75
2023-04-16T05:36:45.552Z,98280.03
2023-04-16T05:39:31.042Z,98328.75
2023-04-16T05:42:16.448Z,98285.88
2023-04-16T05:45:03.045Z,98247.25
2023-04-16T05:47:51.527Z,98216.75
2023-04-16T05:50:37.372Z,98268.22
2023-04-16T05:53:30.791Z,97895.34
2023-04-16T05:56:16.009Z,97322.81
2023-04-16T05:59:01.966Z,97852.16
2023-04-16T06:01:51.318Z,97799.03
2023-04-16T06:04:39.646Z,97903.53
2023-04-16T06:07:26.272Z,97715.00
2023-04-16T06:10:21.894Z,97299.06
2023-04-16T06:13:07.557Z,97288.63
2023-04-16T06:15:55.815Z,97304.53
2023-04-16T06:18:43.660Z,97930.59
2023-04-16T06:21:35.774Z,97408.97
2023-04-16T06:24:21.205Z,97352.06
2023-04-16T06:27:09.256Z,97555.28
2023-04-16T06:29:58.116Z,97895.28
2023-04-16T06:32:44.105Z,97696.84
2023-04-16T06:35:32.253Z,97864.75
2023-04-16T06:41:36.915Z,97808.25
2023-04-16T06:44:22.535Z,97876.50
2023-04-16T06:47:08.679Z,97784.03
2023-04-16T06:49:54.770Z,98386.38
2023-04-16T06:52:40.574Z,97750.41
2023-04-16T06:55:26.502Z,97275.34
2023-04-16T06:58:14.051Z,97935.19
2023-04-16T07:01:02.280Z,98062.28
2023-04-16T07:03:54.750Z,98197.41
2023-04-16T07:06:43.328Z,97251.44
2023-04-16T07:09:30.158Z,97783.63
2023-04-16T07:12:15.847Z,97385.47
2023-04-16T07:15:09.878Z,98382.59
2023-04-16T07:17:57.918Z,98233.81
2023-04-16T07:20:43.147Z,98237.41
2023-04-16T07:23:28.533Z,98289.03
2023-04-16T07:26:14.337Z,98436.53
2023-04-16T07:29:03.965Z,98419.78
2023-04-16T07:32:30.642Z,97533.63
2023-04-16T07:35:20.643Z,97832.47
2023-04-16T07:38:06.450Z,98250.53
2023-04-16T07:40:53.843Z,98344.25
2023-04-16T07:43:39.565Z,98442.38
2023-04-16T07:46:30.478Z,98449.63
2023-04-16T07:49:21.359Z,98250.53
2023-04-16T07:52:09.549Z,98450.56
2023-04-16T07:54:54.838Z,98419.91
2023-04-16T07:57:41.416Z,98246.84
2023-04-16T08:00:26.321Z,98268.59
2023-04-16T08:03:12.596Z,98262.06
2023-04-16T08:05:58.629Z,98276.88
2023-04-16T08:08:44.167Z,98346.97
2023-04-16T08:11:30.067Z,98260.41
2023-04-16T08:14:17.098Z,98461.94
2023-04-16T08:17:02.828Z,98377.25
2023-04-16T08:19:48.260Z,98386.09
2023-04-16T08:22:33.988Z,98372.97
2023-04-16T08:25:19.417Z,98386.38
2023-04-16T08:28:05.279Z,98296.31
2023-04-16T08:30:51.116Z,98404.34
2023-04-16T08:33:36.680Z,97958.53
2023-04-16T08:36:23.580Z,98475.66
2023-04-16T08:39:09.358Z,98512.78
2023-04-16T08:41:57.109Z,98436.91
2023-04-16T08:44:49.258Z,98268.88
2023-04-16T08:47:36.144Z,98342.47
2023-04-16T08:50:25.801Z,98435.09
2023-04-16T08:53:17.712Z,98437.00
2023-04-16T08:56:09.750Z,98328.03
2023-04-16T08:58:55.691Z,98520.22
2023-04-16T09:01:41.410Z,98347.03
2023-04-16T09:04:28.274Z,98325.22
2023-04-16T09:07:15.641Z,98414.44
2023-04-16T09:10:00.987Z,98440.44
2023-04-16T09:12:46.620Z,98350.16
2023-04-16T09:15:34.986Z,98352.75
2023-04-16T09:18:20.999Z,98326.38
2023-04-16T09:21:11.373Z,98397.72
2023-04-16T09:23:57.106Z,98482.19
2023-04-16T09:26:42.656Z,98467.25
2023-04-16T09:29:34.859Z,98524.63
2023-04-16T09:32:25.862Z,98554.38
2023-04-16T09:35:11.409Z,98564.97
2023-04-16T09:37:58.011Z,98476.69
2023-04-16T09:40:43.627Z,98536.28
2023-04-16T09:43:28.874Z,98267.88
2023-04-16T09:46:14.090Z,98390.81
2023-04-16T09:49:08.853Z,98484.66
2023-04-16T09:51:54.504Z,98369.34
2023-04-16T09:54:46.283Z,98578.41
2023-04-16T09:57:32.011Z,98324.25
2023-04-16T10:00:19.281Z,98417.53
2023-04-16T10:03:07.884Z,97978.03
2023-04-16T10:05:56.940Z,98412.97
2023-04-16T10:08:50.474Z,98543.28
2023-04-16T10:11:37.001Z,98498.59
2023-04-16T10:14:22.083Z,98449.84
2023-04-16T10:17:09.289Z,98502.00
2023-04-16T10:19:55.351Z,98503.81
2023-04-16T10:22:41.850Z,98514.81
2023-04-16T10:25:28.726Z,98544.38
2023-04-16T10:28:15.461Z,98405.25
2023-04-16T10:31:03.408Z,98627.47
2023-04-16T10:33:49.818Z,98459.38
2023-04-16T10:36:39.563Z,98624.53
2023-04-16T10:39:29.777Z,98562.59
2023-04-16T10:42:15.347Z,98420.94
2023-04-16T10:45:01.040Z,98447.22
2023-04-16T10:47:46.998Z,98599.25
2023-04-16T10:50:36.751Z,98638.81
2023-04-16T10:53:27.330Z,98573.31
2023-04-16T10:56:14.080Z,98573.31
2023-04-16T10:58:59.508Z,98472.13
2023-04-16T11:01:48.263Z,98631.91
2023-04-16T11:04:39.358Z,98477.69
2023-04-16T11:07:35.438Z,98643.03
2023-04-16T11:10:20.774Z,98487.56
2023-04-16T11:13:06.581Z,98462.16
2023-04-16T11:15:56.362Z,98643.38
2023-04-16T11:18:50.913Z,98647.34
2023-04-16T11:21:37.094Z,98609.88
2023-04-16T11:24:23.683Z,98544.97
2023-04-16T11:27:13.286Z,98622.75
2023-04-16T11:30:04.401Z,98648.38
2023-04-16T11:32:49.992Z,98485.38
2023-04-16T11:35:35.869Z,98568.25
2023-04-16T11:38:32.263Z,98583.53
2023-04-16T11:41:20.874Z,98632.50
2023-04-16T11:44:26.025Z,98656.03
2023-04-16T11:47:11.691Z,98601.28
2023-04-16T11:49:58.308Z,98600.88
2023-04-16T11:52:44.416Z,98624.53
2023-04-16T11:55:29.897Z,98404.50
2023-04-16T11:58:15.344Z,98635.03
2023-04-16T12:01:01.906Z,98663.13
2023-04-16T12:03:47.567Z,98663.28
2023-04-16T12:06:32.941Z,98496.78
2023-04-16T12:09:25.950Z,98642.94
2023-04-16T12:12:27.933Z,98662.97
2023-04-16T12:15:14.086Z,98663.47
2023-04-16T12:18:09.111Z,98315.81
2023-04-16T12:20:55.177Z,98536.19
2023-04-16T12:23:41.470Z,98282.66
2023-04-16T12:26:27.237Z,98570.69
2023-04-16T12:29:21.424Z,98585.44
2023-04-16T12:32:23.031Z,98271.19
2023-04-16T12:35:11.335Z,98323.78
2023-04-16T12:37:57.300Z,98584.84
2023-04-16T12:40:43.231Z,98511.91
2023-04-16T12:43:28.694Z,98636.31
2023-04-16T12:46:14.353Z,98629.59
2023-04-16T12:48:59.667Z,98646.78
2023-04-16T12:51:45.303Z,98518.06
2023-04-16T12:54:30.892Z,98649.13
2023-04-16T12:57:18.068Z,98667.16
2023-04-16T13:00:03.945Z,98664.81
2023-04-16T13:02:49.521Z,98211.81
2023-04-16T13:05:35.369Z,98542.13
2023-04-16T13:08:20.952Z,98513.91
2023-04-16T13:11:06.656Z,98656.41
2023-04-16T13:13:52.568Z,98661.63
2023-04-16T13:16:38.320Z,98403.28
2023-04-16T13:19:23.971Z,98418.03
2023-04-16T13:22:10.103Z,98687.28
2023-04-16T13:24:55.655Z,98519.09
2023-04-16T13:27:41.997Z,98561.97
2023-04-16T13:30:27.534Z,98632.91
2023-04-16T13:33:13.308Z,98486.47
2023-04-16T13:35:58.991Z,98535.34
2023-04-16T13:38:44.513Z,98321.97
2023-04-16T13:41:30.110Z,98675.94
2023-04-16T13:44:15.182Z,98687.47
2023-04-16T13:47:00.967Z,98534.28
2023-04-16T13:49:46.502Z,98703.06
2023-04-16T13:52:31.593Z,98543.22
2023-04-16T13:55:17.732Z,98696.47
2023-04-16T13:58:03.462Z,98614.34
2023-04-16T14:00:49.045Z,98638.66
2023-04-16T14:03:34.708Z,98616.31
2023-04-16T14:06:19.924Z,98665.44
2023-04-16T14:09:05.430Z,98593.03
2023-04-16T14:11:51.372Z,98460.38
2023-04-16T14:14:36.896Z,98604.75
2023-04-16T14:17:22.585Z,98564.41
2023-04-16T14:20:09.025Z,98629.78
2023-04-16T14:22:54.554Z,98708.00
2023-04-16T14:25:40.276Z,98510.06
2023-04-16T14:28:25.824Z,98695.91
2023-04-16T14:31:11.233Z,98608.03
2023-04-16T14:33:56.281Z,98657.06
2023-04-16T14:36:41.601Z,98516.13
2023-04-16T14:39:27.144Z,98683.53
2023-04-16T14:42:12.467Z,98672.66
2023-04-16T14:44:58.045Z,98681.34
2023-04-16T14:47:43.327Z,98587.75
2023-04-16T14:50:28.953Z,98567.41
2023-04-16T14:53:14.522Z,98524.53
2023-04-16T14:55:59.646Z,98713.56
2023-04-16T14:58:45.010Z,98593.66
2023-04-16T15:01:30.530Z,98718.66
2023-04-16T15:04:15.775Z,98472.16
2023-04-16T15:07:01.488Z,98537.47
2023-04-16T15:09:46.466Z,98607.19
2023-04-16T15:12:31.757Z,98731.13
2023-04-16T15:15:17.320Z,98689.19
2023-04-16T15:18:05.454Z,98555.25
2023-04-16T15:20:52.282Z,98608.41
2023-04-16T15:23:38.496Z,98611.00
2023-04-16T15:26:24.378Z,98267.22
2023-04-16T15:29:10.957Z,98692.09
2023-04-16T15:31:57.474Z,98538.94
2023-04-16T15:34:43.404Z,98491.16
2023-04-16T15:37:30.287Z,98574.38
2023-04-16T15:40:16.162Z,98704.50
2023-04-16T15:43:02.179Z,98626.81
2023-04-16T15:45:47.813Z,98065.06
2023-04-16T15:48:35.343Z,98714.81
2023-04-16T15:51:22.849Z,97888.28
2023-04-16T15:54:08.867Z,98134.91
2023-04-16T15:56:55.259Z,98167.66
2023-04-16T15:59:41.223Z,97672.59
2023-04-16T16:02:27.465Z,98249.22
2023-04-16T16:05:17.481Z,98384.56
2023-04-16T16:08:03.635Z,98311.16
2023-04-16T16:10:49.413Z,98360.00
2023-04-16T16:13:41.345Z,98385.75
2023-04-16T16:16:28.301Z,98782.00
2023-04-16T16:19:15.819Z,98328.84
2023-04-16T16:22:01.749Z,97893.91
2023-04-16T16:24:49.358Z,98289.03
2023-04-16T16:27:35.360Z,98178.78
2023-04-16T16:30:22.817Z,98254.78
2023-04-16T16:33:09.496Z,97929.19
2023-04-16T16:35:55.771Z,98422.47
2023-04-16T16:38:41.800Z,98393.47
2023-04-16T16:41:31.215Z,98289.03
2023-04-16T16:44:17.356Z,98176.47
2023-04-16T16:47:03.229Z,97981.50
2023-04-16T16:49:51.419Z,98338.88
2023-04-16T16:52:38.297Z,98478.91
2023-04-16T16:55:24.804Z,98198.28
2023-04-16T16:58:15.784Z,98352.75
2023-04-16T17:01:01.627Z,98330.81
2023-04-16T17:03:47.329Z,98699.19
2023-04-16T17:06:35.778Z,98765.63
2023-04-16T17:09:24.989Z,98743.88
2023-04-16T17:12:10.393Z,98541.59
2023-04-16T17:14:56.103Z,98653.75
2023-04-16T17:17:42.034Z,98727.38
2023-04-16T17:20:28.204Z,98601.41
2023-04-16T17:23:13.928Z,98678.66
2023-04-16T17:26:04.034Z,98775.63
2023-04-16T17:28:49.613Z,98674.91
2023-04-16T17:31:35.475Z,98560.25
2023-04-16T17:34:21.363Z,98785.16
2023-04-16T17:37:07.021Z,98719.25
2023-04-16T17:39:53.649Z,98706.72
2023-04-16T17:42:39.152Z,98756.47
2023-04-16T17:45:25.467Z,98694.31
2023-04-16T17:48:10.788Z,98695.97
2023-04-16T17:50:56.018Z,98511.50
2023-04-16T17:53:41.533Z,98614.59
2023-04-16T17:56:26.781Z,98674.00
2023-04-16T17:59:12.117Z,98681.69
2023-04-16T18:01:57.363Z,98544.16
2023-04-16T18:04:45.847Z,98618.38
2023-04-16T18:07:32.544Z,98634.59
2023-04-16T18:10:18.224Z,98790.31
2023-04-16T18:13:05.131Z,98698.75
2023-04-16T18:15:53.007Z,98737.63
2023-04-16T18:18:38.561Z,98829.63
2023-04-16T18:21:24.339Z,98506.34
2023-04-16T18:24:10.333Z,98810.00
2023-04-16T18:26:56.300Z,98767.69
2023-04-16T18:29:45.246Z,98677.00
2023-04-16T18:32:31.506Z,98785.56
2023-04-16T18:35:17.228Z,98729.78
2023-04-16T18:38:02.754Z,98627.78
2023-04-16T18:40:48.461Z,98675.75
2023-04-16T18:43:33.939Z,98850.22
2023-04-16T18:46:19.452Z,98679.47
2023-04-16T18:49:05.184Z,98844.41
2023-04-16T18:51:50.803Z,98815.47
2023-04-16T18:54:36.337Z,98833.81
2023-04-16T18:57:21.864Z,98854.50
2023-04-16T19:00:08.097Z,98709.13
2023-04-16T19:02:53.556Z,98808.34
2023-04-16T19:05:39.171Z,98828.00
2023-04-16T19:08:24.865Z,98789.34
2023-04-16T19:11:10.558Z,98869.78
2023-04-16T19:13:55.945Z,98774.47
2023-04-16T19:16:42.076Z,98847.28
2023-04-16T19:19:27.628Z,98652.75
2023-04-16T19:22:13.090Z,98843.53
2023-04-16T19:24:58.486Z,98728.25
2023-04-16T19:27:45.298Z,98807.38
2023-04-16T19:30:30.927Z,98753.06
2023-04-16T19:33:16.146Z,98665.66
2023-04-16T19:36:01.776Z,98825.91
2023-04-16T19:38:47.245Z,98570.09
2023-04-16T19:41:33.006Z,98677.25
2023-04-16T19:44:18.474Z,98883.94
2023-04-16T19:47:04.394Z,98858.78
2023-04-16T19:49:51.794Z,98673.25
2023-04-16T19:52:37.508Z,98786.97
2023-04-16T19:55:23.012Z,98641.44
2023-04-16T19:58:09.231Z,98663.19
2023-04-16T20:00:55.037Z,98636.59
2023-04-16T20:03:40.473Z,98807.09
2023-04-16T20:06:25.792Z,98751.38
2023-04-16T20:09:11.571Z,98667.97
2023-04-16T20:12:00.144Z,98496.31
2023-04-16T20:14:57.023Z,98007.88
2023-04-16T20:17:42.422Z,98652.91
2023-04-16T20:20:27.825Z,98770.22
2023-04-16T20:23:13.759Z,98642.53
2023-04-16T20:25:59.507Z,98774.53
2023-04-16T20:28:45.487Z,98765.50
2023-04-16T20:31:31.209Z,98551.91
2023-04-16T20:34:16.652Z,97678.94
2023-04-16T20:37:02.279Z,97719.16
2023-04-16T20:39:47.901Z,98620.25
2023-04-16T20:42:33.392Z,98723.09
2023-04-16T20:45:18.986Z,98610.56
2023-04-16T20:48:05.273Z,98734.59
2023-04-16T20:50:50.548Z,98657.38
2023-04-16T20:53:36.045Z,98889.03
2023-04-16T20:56:21.665Z,98872.38
2023-04-16T20:59:07.028Z,98733.94
2023-04-16T21:01:52.849Z,98404.50
2023-04-16T21:04:39.791Z,98638.34
2023-04-16T21:07:25.411Z,98836.22
2023-04-16T21:10:11.269Z,98869.94
2023-04-16T21:12:57.181Z,98871.94
2023-04-16T21:15:43.564Z,98807.28
2023-04-16T21:18:28.887Z,98882.44
2023-04-16T21:21:13.920Z,98813.50
2023-04-16T21:23:59.624Z,98877.84
2023-04-16T21:26:44.834Z,98873.72
2023-04-16T21:29:30.204Z,98864.03
2023-04-16T21:32:15.405Z,98879.66
2023-04-16T21:35:00.737Z,98884.59
2023-04-16T21:37:46.190Z,98892.13
2023-04-16T21:40:31.540Z,98848.38
2023-04-16T21:43:17.293Z,98885.56
2023-04-16T21:46:02.578Z,98886.06
2023-04-16T21:48:47.707Z,98883.59
2023-04-16T21:51:33.043Z,98885.38
2023-04-16T21:54:18.363Z,98887.81
2023-04-16T21:57:03.753Z,98900.59
2023-04-16T21:59:49.127Z,98894.38
2023-04-16T22:02:34.286Z,98885.19
2023-04-16T22:05:19.581Z,98890.44
2023-04-16T22:08:16.945Z,98879.56
2023-04-16T22:11:06.757Z,98887.50
2023-04-16T22:13:52.010Z,98892.13
2023-04-16T22:16:37.606Z,98889.19
2023-04-16T22:19:23.088Z,98897.09
2023-04-16T22:22:08.576Z,98892.81
2023-04-16T22:24:54.315Z,98896.59
2023-04-16T22:27:39.542Z,98876.34
2023-04-16T22:30:24.813Z,98894.16
2023-04-16T22:33:10.383Z,98891.19
2023-04-16T22:35:55.662Z,98887.56
2023-04-16T22:38:40.973Z,98890.84
2023-04-16T22:41:26.368Z,98864.03
2023-04-16T22:44:11.607Z,98877.53
2023-04-16T22:46:57.139Z,98877.81
2023-04-16T22:49:42.204Z,98877.81
2023-04-16T22:52:27.911Z,98893.28
2023-04-16T22:55:12.951Z,98894.59
2023-04-16T22:57:58.191Z,98894.75
2023-04-16T23:00:43.566Z,98894.88
2023-04-16T23:03:28.880Z,98891.75
2023-04-16T23:06:14.145Z,98889.78
2023-04-16T23:08:59.322Z,98809.19
2023-04-16T23:11:44.767Z,98884.06
2023-04-16T23:14:30.252Z,98890.44
2023-04-16T23:17:15.800Z,98890.38
2023-04-16T23:20:01.204Z,98892.66
2023-04-16T23:22:46.773Z,98892.91
2023-04-16T23:25:32.255Z,98897.03
2023-04-16T23:28:17.440Z,98888.16
2023-04-16T23:31:04.205Z,98889.84
2023-04-16T23:33:51.395Z,98893.13
2023-04-16T23:36:36.676Z,98890.91
2023-04-16T23:39:22.186Z,98891.31
2023-04-16T23:42:07.489Z,98892.13
2023-04-16T23:44:52.692Z,98885.25
2023-04-16T23:47:38.400Z,98886.06
2023-04-16T23:50:23.486Z,98888.06
2023-04-16T23:53:08.724Z,98883.75
2023-04-16T23:55:54.025Z,98888.66
2023-04-16T23:58:39.280Z,98880.00
